createdAt,value
2023-05-05T00:00:26.745Z,24.00
2023-05-05T00:01:26.653Z,24.00
2023-05-05T00:02:26.696Z,24.00
2023-05-05T00:03:26.543Z,23.99
2023-05-05T00:04:26.388Z,23.99
2023-05-05T00:05:26.293Z,23.99
2023-05-05T00:06:26.187Z,23.98
2023-05-05T00:07:26.106Z,23.99
2023-05-05T00:08:26.038Z,23.99
2023-05-05T00:09:26.014Z,23.99
2023-05-05T00:10:25.922Z,23.98
2023-05-05T00:11:25.832Z,23.99
2023-05-05T00:12:25.737Z,23.99
2023-05-05T00:13:25.646Z,23.99
2023-05-05T00:14:25.550Z,23.99
2023-05-05T00:15:25.461Z,23.98
2023-05-05T00:16:25.389Z,23.98
2023-05-05T00:17:25.285Z,23.98
2023-05-05T00:18:25.187Z,23.98
2023-05-05T00:19:25.087Z,23.98
2023-05-05T00:20:25.096Z,23.98
2023-05-05T00:21:25.105Z,23.97
2023-05-05T00:22:25.016Z,23.97
2023-05-05T00:23:24.914Z,23.98
2023-05-05T00:24:24.831Z,23.97
2023-05-05T00:25:24.734Z,23.98
2023-05-05T00:26:24.650Z,23.97
2023-05-05T00:27:24.650Z,23.97
2023-05-05T00:28:24.562Z,23.97
2023-05-05T00:29:24.541Z,23.97
2023-05-05T00:30:24.388Z,23.96
2023-05-05T00:31:24.334Z,23.97
2023-05-05T00:32:24.227Z,23.97
2023-05-05T00:33:24.117Z,23.96
2023-05-05T00:34:24.027Z,23.97
2023-05-05T00:35:23.955Z,23.96
2023-05-05T00:36:23.854Z,23.97
2023-05-05T00:37:23.750Z,23.96
2023-05-05T00:38:23.733Z,23.96
2023-05-05T00:39:23.643Z,23.96
2023-05-05T00:40:23.565Z,23.96
2023-05-05T00:41:23.451Z,23.95
2023-05-05T00:42:23.350Z,23.95
2023-05-05T00:43:23.299Z,23.96
2023-05-05T00:44:23.192Z,23.96
2023-05-05T00:45:23.097Z,23.96
2023-05-05T00:46:23.096Z,23.96
2023-05-05T00:47:22.918Z,23.95
2023-05-05T00:48:22.873Z,23.95
2023-05-05T00:49:22.836Z,23.95
2023-05-05T00:50:22.680Z,23.95
2023-05-05T00:51:22.592Z,23.95
2023-05-05T00:52:22.501Z,23.95
2023-05-05T00:53:22.405Z,23.95
2023-05-05T00:54:22.315Z,23.96
2023-05-05T00:55:22.219Z,23.94
2023-05-05T00:56:22.162Z,23.95
2023-05-05T00:57:22.029Z,23.95
2023-05-05T00:58:21.939Z,23.95
2023-05-05T00:59:21.845Z,23.95
2023-05-05T01:00:21.753Z,23.95
2023-05-05T01:01:21.693Z,23.94
2023-05-05T01:02:21.584Z,23.95
2023-05-05T01:03:21.636Z,23.94
2023-05-05T01:04:21.522Z,23.94
2023-05-05T01:05:21.441Z,23.94
2023-05-05T01:06:21.366Z,23.93
2023-05-05T01:07:21.270Z,23.94
2023-05-05T01:08:21.179Z,23.94
2023-05-05T01:09:21.193Z,23.93
2023-05-05T01:10:21.229Z,23.93
2023-05-05T01:11:21.027Z,23.93
2023-05-05T01:12:21.012Z,23.94
2023-05-05T01:13:20.852Z,23.93
2023-05-05T01:14:20.766Z,23.93
2023-05-05T01:15:20.681Z,23.93
2023-05-05T01:16:20.618Z,23.93
2023-05-05T01:17:20.498Z,23.93
2023-05-05T01:18:20.445Z,23.93
2023-05-05T01:19:20.367Z,23.92
2023-05-05T01:20:20.272Z,23.92
2023-05-05T01:21:20.187Z,23.92
2023-05-05T01:22:20.091Z,23.92
2023-05-05T01:23:20.005Z,23.92
2023-05-05T01:24:19.920Z,23.92
2023-05-05T01:25:19.821Z,23.92
2023-05-05T01:26:19.729Z,23.92
2023-05-05T01:27:19.652Z,23.92
2023-05-05T01:28:19.574Z,23.91
2023-05-05T01:29:19.477Z,23.92
2023-05-05T01:30:19.390Z,23.91
2023-05-05T01:31:19.340Z,23.91
2023-05-05T01:32:19.235Z,23.92
2023-05-05T01:33:19.117Z,23.91
2023-05-05T01:34:19.019Z,23.92
2023-05-05T01:35:18.925Z,23.91
2023-05-05T01:36:18.824Z,23.92
2023-05-05T01:37:18.742Z,23.91
2023-05-05T01:38:18.642Z,23.91
2023-05-05T01:39:18.543Z,23.91
2023-05-05T01:40:18.442Z,23.91
2023-05-05T01:41:18.354Z,23.91
2023-05-05T01:42:18.273Z,23.90
2023-05-05T01:43:18.187Z,23.91
2023-05-05T01:44:18.083Z,23.91
2023-05-05T01:45:18.000Z,23.91
2023-05-05T01:46:18.041Z,23.92
2023-05-05T01:47:17.831Z,23.90
2023-05-05T01:48:17.731Z,23.91
2023-05-05T01:49:17.691Z,23.91
2023-05-05T01:50:17.563Z,23.92
2023-05-05T01:51:17.482Z,23.91
2023-05-05T01:52:17.384Z,23.91
2023-05-05T01:53:17.299Z,23.91
2023-05-05T01:54:17.215Z,23.91
2023-05-05T01:55:17.117Z,23.91
2023-05-05T01:56:17.056Z,23.91
2023-05-05T01:57:16.958Z,23.91
2023-05-05T01:58:16.875Z,23.91
2023-05-05T01:59:16.789Z,23.91
2023-05-05T02:00:16.720Z,23.91
2023-05-05T02:01:16.633Z,23.91
2023-05-05T02:02:16.554Z,23.91
2023-05-05T02:03:16.557Z,23.90
2023-05-05T02:04:16.388Z,23.91
2023-05-05T02:05:16.290Z,23.91
2023-05-05T02:06:16.220Z,23.91
2023-05-05T02:07:16.158Z,23.91
2023-05-05T02:08:16.068Z,23.91
2023-05-05T02:09:15.969Z,23.91
2023-05-05T02:10:15.874Z,23.91
2023-05-05T02:11:15.801Z,23.91
2023-05-05T02:12:15.706Z,23.91
2023-05-05T02:13:15.733Z,23.91
2023-05-05T02:14:15.524Z,23.91
2023-05-05T02:15:15.480Z,23.91
2023-05-05T02:16:15.469Z,23.91
2023-05-05T02:17:15.284Z,23.91
2023-05-05T02:18:15.207Z,23.91
2023-05-05T02:19:15.182Z,23.91
2023-05-05T02:20:15.028Z,23.91
2023-05-05T02:21:14.940Z,23.91
2023-05-05T02:22:14.884Z,23.91
2023-05-05T02:23:14.783Z,23.91
2023-05-05T02:24:14.678Z,23.91
2023-05-05T02:25:14.588Z,23.91
2023-05-05T02:26:14.496Z,23.92
2023-05-05T02:27:14.406Z,23.92
2023-05-05T02:28:14.382Z,23.92
2023-05-05T02:29:14.260Z,23.92
2023-05-05T02:30:14.162Z,23.92
2023-05-05T02:31:14.108Z,23.92
2023-05-05T02:32:13.995Z,23.93
2023-05-05T02:33:13.926Z,23.92
2023-05-05T02:34:13.819Z,23.93
2023-05-05T02:35:13.724Z,23.93
2023-05-05T02:36:13.631Z,23.93
2023-05-05T02:37:13.611Z,23.92
2023-05-05T02:38:13.521Z,23.92
2023-05-05T02:39:13.433Z,23.93
2023-05-05T02:40:13.333Z,23.93
2023-05-05T02:41:13.309Z,23.93
2023-05-05T02:42:13.205Z,23.92
2023-05-05T02:43:13.135Z,23.93
2023-05-05T02:44:13.026Z,23.92
2023-05-05T02:45:12.957Z,23.93
2023-05-05T02:46:12.838Z,23.93
2023-05-05T02:47:12.762Z,23.93
2023-05-05T02:48:12.675Z,23.92
2023-05-05T02:49:12.572Z,23.92
2023-05-05T02:50:12.481Z,23.93
2023-05-05T02:51:12.390Z,23.93
2023-05-05T02:52:12.300Z,23.93
2023-05-05T02:53:12.211Z,23.93
2023-05-05T02:54:12.125Z,23.94
2023-05-05T02:55:12.030Z,23.94
2023-05-05T02:56:11.943Z,23.93
2023-05-05T02:57:11.839Z,23.94
2023-05-05T02:58:11.757Z,23.94
2023-05-05T02:59:12.478Z,23.93
2023-05-05T03:00:11.554Z,23.94
2023-05-05T03:01:11.514Z,23.94
2023-05-05T03:02:11.356Z,23.94
2023-05-05T03:03:11.362Z,23.94
2023-05-05T03:04:11.157Z,23.95
2023-05-05T03:05:11.074Z,23.95
2023-05-05T03:06:10.981Z,23.95
2023-05-05T03:07:10.877Z,23.95
2023-05-05T03:08:10.807Z,23.94
2023-05-05T03:09:10.681Z,23.95
2023-05-05T03:10:10.744Z,23.95
2023-05-05T03:11:10.500Z,23.95
2023-05-05T03:12:10.436Z,23.95
2023-05-05T03:13:10.394Z,23.95
2023-05-05T03:14:10.257Z,23.95
2023-05-05T03:15:10.167Z,23.95
2023-05-05T03:16:10.085Z,23.95
2023-05-05T03:17:09.968Z,23.96
2023-05-05T03:18:09.891Z,23.96
2023-05-05T03:19:09.878Z,23.96
2023-05-05T03:20:09.820Z,23.96
2023-05-05T03:21:09.619Z,23.96
2023-05-05T03:22:09.527Z,23.96
2023-05-05T03:23:09.442Z,23.96
2023-05-05T03:24:09.354Z,23.97
2023-05-05T03:25:09.254Z,23.97
2023-05-05T03:26:09.181Z,23.96
2023-05-05T03:27:09.078Z,23.97
2023-05-05T03:28:09.008Z,23.96
2023-05-05T03:29:08.917Z,23.97
2023-05-05T03:30:08.987Z,23.97
2023-05-05T03:31:08.701Z,23.98
2023-05-05T03:32:08.639Z,23.98
2023-05-05T03:33:08.536Z,23.98
2023-05-05T03:34:08.411Z,23.98
2023-05-05T03:35:08.316Z,23.98
2023-05-05T03:36:08.216Z,23.98
2023-05-05T03:37:08.121Z,23.98
2023-05-05T03:38:08.029Z,23.98
2023-05-05T03:39:07.928Z,23.99
2023-05-05T03:40:08.045Z,23.99
2023-05-05T03:41:07.744Z,23.99
2023-05-05T03:42:07.646Z,23.99
2023-05-05T03:43:07.556Z,23.99
2023-05-05T03:44:07.463Z,23.99
2023-05-05T03:45:07.369Z,23.99
2023-05-05T03:46:07.305Z,23.98
2023-05-05T03:47:07.196Z,23.99
2023-05-05T03:48:07.194Z,24.00
2023-05-05T03:49:07.016Z,23.99
2023-05-05T03:50:07.109Z,23.99
2023-05-05T03:51:06.870Z,23.99
2023-05-05T03:52:06.726Z,23.99
2023-05-05T03:53:06.653Z,23.99
2023-05-05T03:54:06.536Z,24.00
2023-05-05T03:55:06.495Z,24.00
2023-05-05T03:56:06.383Z,24.00
2023-05-05T03:57:06.293Z,24.00
2023-05-05T03:58:06.208Z,24.00
2023-05-05T03:59:06.110Z,24.00
2023-05-05T04:00:06.154Z,24.00
2023-05-05T04:01:05.920Z,24.00
2023-05-05T04:02:05.892Z,24.00
2023-05-05T04:03:05.916Z,24.00
2023-05-05T04:04:05.679Z,24.01
2023-05-05T04:05:05.601Z,24.00
2023-05-05T04:06:05.514Z,24.01
2023-05-05T04:07:05.397Z,24.01
2023-05-05T04:08:05.368Z,24.01
2023-05-05T04:09:05.225Z,24.01
2023-05-05T04:10:05.193Z,24.00
2023-05-05T04:11:05.029Z,24.01
2023-05-05T04:12:04.959Z,24.00
2023-05-05T04:13:04.907Z,24.01
2023-05-05T04:14:04.763Z,24.01
2023-05-05T04:15:04.690Z,24.02
2023-05-05T04:16:04.589Z,24.01
2023-05-05T04:17:04.477Z,24.01
2023-05-05T04:18:04.446Z,24.01
2023-05-05T04:19:04.305Z,24.01
2023-05-05T04:20:04.204Z,24.01
2023-05-05T04:21:04.116Z,24.01
2023-05-05T04:22:04.017Z,24.01
2023-05-05T04:23:03.948Z,24.01
2023-05-05T04:24:03.836Z,24.02
2023-05-05T04:25:03.755Z,24.02
2023-05-05T04:26:03.653Z,24.02
2023-05-05T04:27:03.556Z,24.02
2023-05-05T04:28:03.500Z,24.02
2023-05-05T04:29:03.375Z,24.01
2023-05-05T04:30:03.292Z,24.02
2023-05-05T04:31:03.297Z,24.02
2023-05-05T04:32:03.125Z,24.01
2023-05-05T04:33:03.149Z,24.02
2023-05-05T04:34:02.977Z,24.02
2023-05-05T04:35:02.874Z,24.01
2023-05-05T04:36:02.775Z,24.02
2023-05-05T04:37:02.680Z,24.02
2023-05-05T04:38:02.600Z,24.03
2023-05-05T04:39:02.527Z,24.02
2023-05-05T04:40:02.401Z,24.02
2023-05-05T04:41:02.321Z,24.03
2023-05-05T04:42:02.225Z,24.02
2023-05-05T04:43:02.131Z,24.02
2023-05-05T04:44:02.023Z,24.02
2023-05-05T04:45:01.953Z,24.03
2023-05-05T04:46:01.847Z,24.02
2023-05-05T04:47:01.754Z,24.03
2023-05-05T04:48:01.709Z,24.02
2023-05-05T04:49:01.551Z,24.03
2023-05-05T04:50:01.453Z,24.02
2023-05-05T04:51:01.361Z,24.03
2023-05-05T04:52:01.271Z,24.03
2023-05-05T04:53:01.170Z,24.03
2023-05-05T04:54:01.113Z,24.02
2023-05-05T04:55:00.979Z,24.03
2023-05-05T04:56:00.899Z,24.03
2023-05-05T04:57:00.800Z,24.03
2023-05-05T04:58:00.704Z,24.03
2023-05-05T04:59:00.614Z,24.03
2023-05-05T05:00:00.520Z,24.04
2023-05-05T05:01:00.435Z,24.03
2023-05-05T05:02:00.391Z,24.03
2023-05-05T05:03:00.345Z,24.04
2023-05-05T05:04:00.460Z,24.04
2023-05-05T05:05:00.081Z,24.03
2023-05-05T05:05:59.968Z,24.03
2023-05-05T05:06:59.866Z,24.03
2023-05-05T05:07:59.771Z,24.03
2023-05-05T05:08:59.676Z,24.03
2023-05-05T05:09:59.575Z,24.03
2023-05-05T05:10:59.487Z,24.03
2023-05-05T05:11:59.389Z,24.03
2023-05-05T05:12:59.303Z,24.04
2023-05-05T05:13:59.202Z,24.04
2023-05-05T05:14:59.130Z,24.04
2023-05-05T05:15:59.083Z,24.04
2023-05-05T05:16:58.940Z,24.03
2023-05-05T05:17:58.925Z,24.04
2023-05-05T05:19:01.397Z,24.04
2023-05-05T05:19:58.636Z,24.03
2023-05-05T05:20:58.522Z,24.04
2023-05-05T05:21:58.435Z,24.05
2023-05-05T05:22:58.306Z,24.04
2023-05-05T05:23:58.698Z,24.02
2023-05-05T05:24:58.087Z,24.01
2023-05-05T05:25:57.995Z,23.98
2023-05-05T05:26:57.876Z,23.96
2023-05-05T05:28:08.823Z,23.92
2023-05-05T05:28:58.672Z,23.88
2023-05-05T05:29:57.565Z,23.87
2023-05-05T05:30:57.487Z,23.83
2023-05-05T05:31:57.401Z,23.80
2023-05-05T05:32:57.327Z,23.80
2023-05-05T05:33:57.232Z,23.78
2023-05-05T05:34:57.713Z,23.79
2023-05-05T05:35:56.982Z,23.81
2023-05-05T05:36:56.853Z,23.85
2023-05-05T05:37:56.756Z,23.92
2023-05-05T05:38:56.642Z,23.96
2023-05-05T05:39:56.530Z,24.02
2023-05-05T05:40:56.421Z,24.05
2023-05-05T05:41:56.363Z,24.07
2023-05-05T05:42:56.216Z,24.09
2023-05-05T05:43:56.102Z,24.13
2023-05-05T05:44:56.003Z,24.17
2023-05-05T05:45:55.916Z,24.21
2023-05-05T05:46:55.808Z,24.23
2023-05-05T05:47:55.757Z,24.25
2023-05-05T05:48:55.796Z,24.28
2023-05-05T05:49:55.635Z,24.31
2023-05-05T05:50:55.566Z,24.32
2023-05-05T05:51:55.350Z,24.34
2023-05-05T05:52:55.253Z,24.36
2023-05-05T05:53:56.900Z,24.38
2023-05-05T05:54:55.062Z,24.40
2023-05-05T05:55:54.944Z,24.42
2023-05-05T05:56:54.834Z,24.44
2023-05-05T05:57:54.735Z,24.44
2023-05-05T05:58:54.611Z,24.44
2023-05-05T05:59:54.507Z,24.40
2023-05-05T06:00:54.412Z,24.36
2023-05-05T06:01:54.290Z,24.32
2023-05-05T06:02:54.311Z,24.28
2023-05-05T06:03:54.144Z,24.27
2023-05-05T06:04:53.983Z,24.27
2023-05-05T06:05:53.853Z,24.26
2023-05-05T06:06:53.740Z,24.27
2023-05-05T06:07:53.628Z,24.30
2023-05-05T06:08:53.522Z,24.33
2023-05-05T06:09:53.408Z,24.35
2023-05-05T06:10:53.311Z,24.40
2023-05-05T06:11:53.189Z,24.43
2023-05-05T06:12:53.112Z,24.48
2023-05-05T06:13:52.981Z,24.51
2023-05-05T06:14:52.866Z,24.56
2023-05-05T06:15:52.782Z,24.61
2023-05-05T06:16:52.646Z,24.65
2023-05-05T06:17:52.575Z,24.67
2023-05-05T06:18:52.414Z,24.69
2023-05-05T06:19:54.071Z,24.74
2023-05-05T06:20:52.166Z,24.79
2023-05-05T06:21:52.052Z,24.83
2023-05-05T06:22:51.940Z,24.83
2023-05-05T06:23:51.830Z,24.82
2023-05-05T06:24:51.751Z,24.83
2023-05-05T06:25:51.696Z,24.80
2023-05-05T06:26:51.634Z,24.80
2023-05-05T06:27:51.577Z,24.81
2023-05-05T06:28:51.534Z,24.83
2023-05-05T06:29:51.469Z,24.84
2023-05-05T06:30:51.389Z,24.87
2023-05-05T06:31:51.345Z,24.89
2023-05-05T06:32:51.300Z,24.91
2023-05-05T06:33:51.185Z,24.92
2023-05-05T06:34:51.229Z,24.94
2023-05-05T06:35:51.098Z,24.96
2023-05-05T06:36:50.988Z,24.98
2023-05-05T06:37:50.879Z,25.00
2023-05-05T06:38:50.799Z,25.02
2023-05-05T06:39:50.723Z,25.05
2023-05-05T06:40:50.628Z,25.03
2023-05-05T06:41:50.536Z,25.01
2023-05-05T06:42:50.455Z,25.02
2023-05-05T06:43:50.369Z,25.04
2023-05-05T06:44:50.316Z,25.07
2023-05-05T06:45:50.188Z,25.09
2023-05-05T06:46:50.152Z,25.11
2023-05-05T06:47:50.017Z,25.15
2023-05-05T06:48:49.904Z,25.17
2023-05-05T06:49:49.806Z,25.18
2023-05-05T06:50:49.694Z,25.19
2023-05-05T06:51:49.593Z,25.20
2023-05-05T06:52:49.550Z,25.20
2023-05-05T06:53:49.450Z,25.22
2023-05-05T06:54:49.294Z,25.22
2023-05-05T06:55:49.186Z,25.23
2023-05-05T06:56:49.089Z,25.24
2023-05-05T06:57:48.978Z,25.25
2023-05-05T06:58:48.873Z,25.26
2023-05-05T06:59:48.774Z,25.27
2023-05-05T07:00:48.717Z,25.29
2023-05-05T07:01:48.572Z,25.29
2023-05-05T07:02:48.497Z,25.30
2023-05-05T07:03:48.385Z,25.31
2023-05-05T07:04:48.274Z,25.32
2023-05-05T07:05:48.147Z,25.33
2023-05-05T07:06:48.042Z,25.34
2023-05-05T07:07:47.935Z,25.35
2023-05-05T07:08:47.814Z,25.37
2023-05-05T07:09:47.897Z,25.37
2023-05-05T07:10:47.616Z,25.38
2023-05-05T07:11:47.534Z,25.39
2023-05-05T07:12:47.453Z,25.40
2023-05-05T07:13:47.355Z,25.41
2023-05-05T07:14:47.292Z,25.43
2023-05-05T07:15:47.157Z,25.43
2023-05-05T07:16:47.110Z,25.44
2023-05-05T07:17:47.036Z,25.48
2023-05-05T07:18:46.924Z,25.48
2023-05-05T07:19:46.865Z,25.51
2023-05-05T07:20:46.759Z,25.52
2023-05-05T07:21:46.677Z,25.53
2023-05-05T07:22:46.603Z,25.53
2023-05-05T07:23:46.679Z,25.54
2023-05-05T07:24:46.477Z,25.55
2023-05-05T07:25:46.537Z,25.56
2023-05-05T07:26:46.340Z,25.58
2023-05-05T07:27:46.277Z,25.58
2023-05-05T07:28:46.258Z,25.60
2023-05-05T07:29:46.670Z,25.61
2023-05-05T07:30:46.145Z,25.62
2023-05-05T07:31:46.735Z,25.64
2023-05-05T07:32:46.313Z,25.66
2023-05-05T07:33:45.965Z,25.66
2023-05-05T07:34:45.903Z,25.67
2023-05-05T07:35:45.824Z,25.68
2023-05-05T07:36:45.771Z,25.70
2023-05-05T07:37:45.719Z,25.72
2023-05-05T07:38:45.643Z,25.73
2023-05-05T07:39:45.581Z,25.75
2023-05-05T07:40:45.518Z,25.74
2023-05-05T07:41:46.310Z,25.75
2023-05-05T07:42:45.380Z,25.76
2023-05-05T07:43:45.344Z,25.76
2023-05-05T07:44:45.264Z,25.76
2023-05-05T07:45:46.189Z,25.77
2023-05-05T07:46:45.147Z,25.77
2023-05-05T07:47:45.120Z,25.78
2023-05-05T07:48:45.040Z,25.80
2023-05-05T07:49:44.981Z,25.80
2023-05-05T07:50:44.922Z,25.81
2023-05-05T07:51:44.849Z,25.82
2023-05-05T07:52:48.238Z,25.83
2023-05-05T07:53:45.674Z,25.84
2023-05-05T07:54:44.536Z,25.84
2023-05-05T07:55:44.407Z,25.84
2023-05-05T07:56:44.291Z,25.85
2023-05-05T07:57:44.291Z,25.86
2023-05-05T07:58:44.055Z,25.86
2023-05-05T07:59:43.945Z,25.87
2023-05-05T08:00:43.813Z,25.86
2023-05-05T08:01:43.689Z,25.87
2023-05-05T08:02:43.646Z,25.88
2023-05-05T08:03:43.618Z,25.88
2023-05-05T08:04:43.444Z,25.89
2023-05-05T08:05:43.392Z,25.89
2023-05-05T08:06:43.308Z,25.91
2023-05-05T08:07:43.278Z,25.91
2023-05-05T08:08:43.151Z,25.92
2023-05-05T08:09:43.091Z,25.92
2023-05-05T08:10:43.687Z,25.93
2023-05-05T08:11:43.768Z,25.93
2023-05-05T08:12:42.880Z,25.92
2023-05-05T08:13:42.853Z,25.90
2023-05-05T08:14:42.742Z,25.90
2023-05-05T08:15:42.700Z,25.89
2023-05-05T08:16:42.606Z,25.90
2023-05-05T08:17:42.589Z,25.91
2023-05-05T08:18:42.440Z,25.90
2023-05-05T08:19:42.361Z,25.89
2023-05-05T08:20:42.285Z,25.91
2023-05-05T08:21:42.224Z,25.92
2023-05-05T08:22:42.154Z,25.92
2023-05-05T08:23:42.094Z,25.93
2023-05-05T08:24:42.036Z,25.93
2023-05-05T08:25:41.957Z,25.93
2023-05-05T08:26:41.883Z,25.91
2023-05-05T08:27:41.818Z,25.92
2023-05-05T08:28:41.732Z,25.94
2023-05-05T08:29:41.717Z,25.94
2023-05-05T08:30:41.572Z,25.95
2023-05-05T08:31:41.619Z,25.94
2023-05-05T08:32:41.514Z,25.94
2023-05-05T08:33:42.198Z,25.94
2023-05-05T08:34:41.252Z,25.94
2023-05-05T08:35:41.163Z,25.94
2023-05-05T08:36:41.075Z,25.94
2023-05-05T08:37:40.983Z,25.95
2023-05-05T08:38:40.896Z,25.95
2023-05-05T08:39:40.801Z,25.95
2023-05-05T08:40:40.741Z,25.96
2023-05-05T08:41:40.634Z,25.96
2023-05-05T08:42:40.528Z,25.96
2023-05-05T08:43:41.203Z,25.97
2023-05-05T08:44:40.343Z,25.97
2023-05-05T08:45:40.331Z,25.97
2023-05-05T08:46:40.185Z,25.99
2023-05-05T08:47:40.152Z,25.98
2023-05-05T08:48:39.918Z,25.99
2023-05-05T08:49:39.813Z,26.00
2023-05-05T08:50:39.715Z,26.00
2023-05-05T08:51:39.613Z,26.01
2023-05-05T08:52:39.593Z,26.01
2023-05-05T08:53:39.424Z,26.02
2023-05-05T08:54:39.303Z,26.04
2023-05-05T08:55:39.201Z,26.03
2023-05-05T08:56:39.106Z,26.05
2023-05-05T08:57:39.761Z,26.06
2023-05-05T08:58:38.919Z,26.06
2023-05-05T08:59:38.801Z,26.06
2023-05-05T09:00:38.728Z,26.06
2023-05-05T09:01:38.628Z,26.07
2023-05-05T09:02:38.588Z,26.08
2023-05-05T09:03:38.454Z,26.09
2023-05-05T09:04:38.279Z,26.11
2023-05-05T09:05:38.165Z,26.11
2023-05-05T09:06:38.069Z,26.12
2023-05-05T09:07:37.953Z,26.12
2023-05-05T09:08:37.845Z,26.13
2023-05-05T09:09:37.741Z,26.13
2023-05-05T09:10:37.628Z,26.14
2023-05-05T09:11:37.516Z,26.14
2023-05-05T09:12:37.425Z,26.15
2023-05-05T09:13:37.383Z,26.15
2023-05-05T09:14:37.184Z,26.15
2023-05-05T09:15:37.093Z,26.15
2023-05-05T09:16:37.009Z,26.16
2023-05-05T09:17:36.955Z,26.15
2023-05-05T09:18:36.748Z,26.16
2023-05-05T09:19:36.621Z,26.17
2023-05-05T09:20:36.528Z,26.17
2023-05-05T09:21:36.425Z,26.17
2023-05-05T09:22:36.324Z,26.17
2023-05-05T09:23:36.219Z,26.17
2023-05-05T09:24:36.109Z,26.16
2023-05-05T09:25:36.012Z,26.15
2023-05-05T09:26:35.916Z,26.15
2023-05-05T09:27:35.827Z,26.13
2023-05-05T09:28:37.225Z,26.12
2023-05-05T09:29:35.644Z,26.12
2023-05-05T09:30:35.551Z,26.10
2023-05-05T09:31:35.474Z,26.10
2023-05-05T09:32:35.380Z,26.08
2023-05-05T09:33:35.376Z,26.08
2023-05-05T09:34:35.231Z,26.07
2023-05-05T09:35:35.139Z,26.05
2023-05-05T09:36:35.077Z,26.04
2023-05-05T09:37:35.013Z,26.02
2023-05-05T09:38:34.981Z,26.01
2023-05-05T09:39:34.907Z,25.99
2023-05-05T09:40:34.802Z,25.98
2023-05-05T09:41:34.717Z,25.96
2023-05-05T09:42:34.643Z,25.95
2023-05-05T09:43:34.600Z,25.93
2023-05-05T09:44:34.541Z,25.92
2023-05-05T09:45:34.480Z,25.90
2023-05-05T09:46:34.506Z,25.89
2023-05-05T09:47:35.513Z,25.88
2023-05-05T09:48:37.780Z,25.87
2023-05-05T09:49:34.218Z,25.86
2023-05-05T09:50:34.056Z,25.84
2023-05-05T09:51:33.904Z,25.83
2023-05-05T09:52:33.773Z,25.83
2023-05-05T09:53:33.661Z,25.81
2023-05-05T09:54:33.527Z,25.81
2023-05-05T09:55:33.549Z,25.78
2023-05-05T09:56:33.251Z,25.77
2023-05-05T09:57:33.130Z,25.76
2023-05-05T09:58:33.919Z,25.76
2023-05-05T09:59:35.083Z,25.74
2023-05-05T10:00:32.788Z,25.73
2023-05-05T10:01:32.677Z,25.73
2023-05-05T10:02:32.626Z,25.72
2023-05-05T10:03:32.372Z,25.71
2023-05-05T10:04:32.858Z,25.70
2023-05-05T10:05:32.211Z,25.70
2023-05-05T10:06:32.056Z,25.68
2023-05-05T10:07:31.977Z,25.68
2023-05-05T10:08:31.917Z,25.67
2023-05-05T10:09:31.826Z,25.66
2023-05-05T10:10:31.958Z,25.65
2023-05-05T10:11:31.627Z,25.64
2023-05-05T10:12:31.547Z,25.64
2023-05-05T10:13:31.431Z,25.62
2023-05-05T10:14:31.290Z,25.61
2023-05-05T10:15:31.176Z,25.61
2023-05-05T10:16:31.186Z,25.63
2023-05-05T10:17:31.011Z,25.66
2023-05-05T10:18:30.941Z,25.67
2023-05-05T10:19:30.775Z,25.71
2023-05-05T10:20:30.689Z,25.72
2023-05-05T10:21:30.702Z,25.76
2023-05-05T10:22:30.556Z,25.78
2023-05-05T10:23:30.487Z,25.80
2023-05-05T10:24:30.432Z,25.83
2023-05-05T10:25:30.354Z,25.84
2023-05-05T10:26:30.287Z,25.86
2023-05-05T10:27:30.216Z,25.88
2023-05-05T10:28:30.132Z,25.89
2023-05-05T10:29:30.039Z,25.91
2023-05-05T10:30:29.957Z,25.93
2023-05-05T10:31:29.921Z,25.94
2023-05-05T10:32:53.197Z,25.96
2023-05-05T10:33:32.235Z,25.97
2023-05-05T10:34:29.694Z,25.99
2023-05-05T10:35:29.371Z,25.99
2023-05-05T10:36:29.264Z,26.01
2023-05-05T10:37:29.230Z,26.00
2023-05-05T10:38:29.846Z,26.03
2023-05-05T10:39:28.875Z,26.04
2023-05-05T10:40:28.737Z,26.06
2023-05-05T10:41:28.606Z,26.07
2023-05-05T10:42:28.491Z,26.08
2023-05-05T10:43:28.347Z,26.11
2023-05-05T10:44:28.208Z,26.12
2023-05-05T10:45:28.119Z,26.13
2023-05-05T10:46:28.874Z,26.14
2023-05-05T10:47:27.999Z,26.15
2023-05-05T10:48:27.714Z,26.15
2023-05-05T10:49:27.551Z,26.15
2023-05-05T10:50:27.422Z,26.15
2023-05-05T10:51:38.525Z,26.18
2023-05-05T10:52:28.156Z,26.20
2023-05-05T10:53:27.114Z,26.22
2023-05-05T10:54:27.821Z,26.21
2023-05-05T10:55:26.740Z,26.22
2023-05-05T10:56:26.623Z,26.22
2023-05-05T10:57:26.478Z,26.24
2023-05-05T10:58:26.341Z,26.25
2023-05-05T10:59:26.208Z,26.24
2023-05-05T11:00:26.061Z,26.24
2023-05-05T11:01:25.966Z,26.25
2023-05-05T11:02:25.885Z,26.25
2023-05-05T11:03:25.740Z,26.25
2023-05-05T11:04:26.540Z,26.26
2023-05-05T11:05:25.409Z,26.26
2023-05-05T11:06:25.269Z,26.26
2023-05-05T11:07:25.132Z,26.27
2023-05-05T11:08:25.003Z,26.27
2023-05-05T11:09:24.881Z,26.28
2023-05-05T11:10:24.758Z,26.27
2023-05-05T11:11:24.624Z,26.27
2023-05-05T11:12:24.506Z,26.27
2023-05-05T11:13:24.485Z,26.27
2023-05-05T11:14:24.261Z,26.27
2023-05-05T11:15:24.166Z,26.26
2023-05-05T11:16:24.032Z,26.26
2023-05-05T11:17:23.914Z,26.25
2023-05-05T11:18:23.741Z,26.25
2023-05-05T11:19:23.615Z,26.23
2023-05-05T11:20:23.480Z,26.22
2023-05-05T11:21:23.361Z,26.21
2023-05-05T11:22:23.229Z,26.21
2023-05-05T11:23:23.113Z,26.21
2023-05-05T11:24:22.983Z,26.19
2023-05-05T11:25:22.956Z,26.18
2023-05-05T11:26:22.809Z,26.18
2023-05-05T11:27:22.734Z,26.16
2023-05-05T11:28:22.653Z,26.16
2023-05-05T11:29:22.571Z,26.15
2023-05-05T11:30:22.494Z,26.15
2023-05-05T11:31:22.448Z,26.13
2023-05-05T11:32:22.385Z,26.11
2023-05-05T11:33:22.275Z,26.11
2023-05-05T11:34:22.193Z,26.09
2023-05-05T11:35:22.123Z,26.08
2023-05-05T11:36:22.048Z,26.08
2023-05-05T11:37:21.976Z,26.07
2023-05-05T11:38:21.900Z,26.06
2023-05-05T11:39:21.825Z,26.05
2023-05-05T11:40:21.817Z,26.05
2023-05-05T11:41:21.802Z,26.04
2023-05-05T11:42:21.610Z,26.02
2023-05-05T11:43:21.545Z,26.02
2023-05-05T11:44:21.489Z,26.01
2023-05-05T11:45:21.425Z,26.01
2023-05-05T11:46:21.384Z,26.00
2023-05-05T11:47:21.328Z,25.98
2023-05-05T11:48:21.270Z,25.99
2023-05-05T11:49:21.193Z,25.98
2023-05-05T11:50:21.077Z,25.96
2023-05-05T11:51:21.871Z,25.95
2023-05-05T11:52:20.941Z,25.93
2023-05-05T11:53:20.942Z,25.93
2023-05-05T11:54:20.808Z,25.92
2023-05-05T11:55:20.750Z,25.91
2023-05-05T11:56:20.703Z,25.90
2023-05-05T11:57:20.680Z,25.91
2023-05-05T11:58:20.642Z,25.90
2023-05-05T11:59:20.498Z,25.89
2023-05-05T12:00:20.440Z,25.89
2023-05-05T12:01:20.382Z,25.88
2023-05-05T12:02:20.397Z,25.86
2023-05-05T12:03:20.413Z,25.85
2023-05-05T12:04:20.235Z,25.85
2023-05-05T12:05:20.188Z,25.84
2023-05-05T12:06:20.118Z,25.84
2023-05-05T12:07:20.092Z,25.84
2023-05-05T12:08:20.014Z,25.83
2023-05-05T12:09:19.961Z,25.82
2023-05-05T12:10:19.917Z,25.80
2023-05-05T12:11:19.860Z,25.80
2023-05-05T12:12:19.825Z,25.80
2023-05-05T12:13:20.042Z,25.78
2023-05-05T12:14:20.380Z,25.78
2023-05-05T12:15:19.655Z,25.77
2023-05-05T12:16:19.653Z,25.77
2023-05-05T12:17:19.517Z,25.77
2023-05-05T12:18:19.475Z,25.77
2023-05-05T12:19:19.409Z,25.76
2023-05-05T12:20:19.360Z,25.75
2023-05-05T12:21:19.270Z,25.74
2023-05-05T12:22:19.219Z,25.73
2023-05-05T12:23:19.174Z,25.73
2023-05-05T12:24:19.101Z,25.72
2023-05-05T12:25:19.033Z,25.70
2023-05-05T12:26:18.947Z,25.68
2023-05-05T12:27:18.861Z,25.67
2023-05-05T12:28:18.817Z,25.67
2023-05-05T12:29:18.774Z,25.67
2023-05-05T12:30:18.812Z,25.66
2023-05-05T12:31:18.597Z,25.65
2023-05-05T12:32:18.495Z,25.64
2023-05-05T12:33:18.418Z,25.63
2023-05-05T12:34:18.348Z,25.62
2023-05-05T12:35:18.297Z,25.62
2023-05-05T12:36:18.217Z,25.62
2023-05-05T12:37:18.152Z,25.62
2023-05-05T12:38:18.095Z,25.62
2023-05-05T12:39:18.053Z,25.60
2023-05-05T12:40:17.985Z,25.61
2023-05-05T12:41:17.937Z,25.61
2023-05-05T12:42:17.867Z,25.61
2023-05-05T12:43:17.787Z,25.60
2023-05-05T12:44:17.713Z,25.59
2023-05-05T12:45:17.701Z,25.59
2023-05-05T12:46:17.584Z,25.58
2023-05-05T12:47:17.449Z,25.58
2023-05-05T12:48:17.360Z,25.57
2023-05-05T12:49:17.266Z,25.57
2023-05-05T12:50:17.210Z,25.56
2023-05-05T12:51:17.169Z,25.56